Time;durP1;ratioP1;P1;durP2;ratioP2;P2;SDS_P1;SDS_P2;PMS_P1;PMS_P2;Temp;Humidity;BMP_temperature;BMP_pressure;BME280_temperature;BME280_humidity;BME280_pressure;Samples;Min_cycle;Max_cycle;Signal;HPM_P1;HPM_P2
2020/12/29 00:00:02;;;;;;;16.35;11.30;;;;;;;3.00;73.33;97816.25;697146;28;46441;-61
2020/12/29 00:00:25;;;;;;;17.05;11.60;;;;;;;2.98;73.57;97819.09;696163;28;69285;-62
2020/12/29 00:00:49;;;;;;;18.48;11.57;;;;;;;2.97;73.29;97817.44;697804;28;23287;-61
2020/12/29 00:01:11;;;;;;;16.88;11.82;;;;;;;2.99;73.37;97817.25;695755;28;79111;-61
2020/12/29 00:01:36;;;;;;;17.13;11.40;;;;;;;2.99;73.36;97819.91;698046;28;23530;-60
2020/12/29 00:01:58;;;;;;;16.27;11.50;;;;;;;3.00;73.22;97818.91;693981;28;138343;-61
2020/12/29 00:02:20;;;;;;;15.98;11.35;;;;;;;3.00;73.29;97825.03;696893;28;46415;-60
2020/12/29 00:02:41;;;;;;;17.23;11.52;;;;;;;2.99;73.34;97826.06;697099;28;46311;-60
2020/12/29 00:03:03;;;;;;;17.85;11.68;;;;;;;2.99;73.21;97819.91;698033;28;21555;-62
2020/12/29 00:03:24;;;;;;;19.02;11.95;;;;;;;3.00;73.19;97822.38;697261;28;46207;-61
2020/12/29 00:03:45;;;;;;;16.75;11.27;;;;;;;3.00;73.11;97818.91;698547;28;1086;-62
2020/12/29 00:04:09;;;;;;;17.30;11.55;;;;;;;3.00;73.25;97821.56;698755;28;933;-61
2020/12/29 00:04:30;;;;;;;17.70;11.85;;;;;;;2.98;73.29;97823.59;696414;28;67493;-62
2020/12/29 00:04:51;;;;;;;17.88;11.75;;;;;;;3.00;73.23;97821.56;698340;28;14638;-61
2020/12/29 00:05:13;;;;;;;19.85;11.80;;;;;;;2.99;73.23;97817.25;697404;28;22427;-62
2020/12/29 00:05:38;;;;;;;17.75;11.50;;;;;;;2.99;73.19;97820.72;696892;28;45988;-60
2020/12/29 00:06:02;;;;;;;15.65;11.10;;;;;;;2.96;73.34;97823.81;694689;28;113632;-61
2020/12/29 00:06:24;;;;;;;17.88;11.45;;;;;;;2.98;73.19;97821.78;693956;28;136643;-62
2020/12/29 00:06:46;;;;;;;17.88;11.63;;;;;;;2.93;73.33;97810.88;697205;28;46346;-61
2020/12/29 00:07:08;;;;;;;17.98;12.15;;;;;;;2.98;73.33;97820.94;696820;28;47445;-61
2020/12/29 00:07:29;;;;;;;18.30;12.27;;;;;;;2.97;73.32;97821.97;696511;28;46342;-61
2020/12/29 00:07:53;;;;;;;18.33;11.57;;;;;;;2.97;73.32;97816.63;698056;28;24124;-61
2020/12/29 00:08:14;;;;;;;15.65;10.85;;;;;;;2.96;73.49;97817.66;695299;28;90533;-60
2020/12/29 00:08:36;;;;;;;16.27;11.20;;;;;;;2.93;73.64;97824.22;698069;28;22659;-62
2020/12/29 00:08:58;;;;;;;17.08;11.02;;;;;;;2.92;73.64;97817.22;698886;28;830;-60
2020/12/29 00:09:21;;;;;;;17.67;11.30;;;;;;;2.93;73.41;97820.72;696826;28;45242;-62
2020/12/29 00:09:42;;;;;;;17.38;11.13;;;;;;;2.92;73.63;97819.91;695695;28;68169;-61
2020/12/29 00:10:03;;;;;;;16.48;11.65;;;;;;;2.95;73.68;97821.34;697424;28;22407;-62
2020/12/29 00:10:25;;;;;;;18.33;12.15;;;;;;;2.95;73.70;97819.50;698784;28;897;-62
2020/12/29 00:10:46;;;;;;;17.02;11.73;;;;;;;2.97;73.63;97820.13;696856;28;46497;-61
2020/12/29 00:11:08;;;;;;;17.65;11.82;;;;;;;2.96;73.69;97817.66;698058;28;10035;-61
2020/12/29 00:11:30;;;;;;;17.05;11.30;;;;;;;2.92;73.78;97817.22;696889;28;46323;-62
2020/12/29 00:11:52;;;;;;;17.27;11.68;;;;;;;2.94;73.73;97820.50;697264;28;44343;-62
2020/12/29 00:12:13;;;;;;;19.05;11.82;;;;;;;2.96;73.89;97820.31;696728;28;44379;-61
2020/12/29 00:12:35;;;;;;;20.13;11.80;;;;;;;2.92;73.77;97817.22;698479;28;890;-61
2020/12/29 00:12:57;;;;;;;17.48;11.48;;;;;;;2.92;73.78;97813.75;698814;28;952;-61
2020/12/29 00:13:18;;;;;;;16.60;11.82;;;;;;;2.94;73.67;97815.19;697256;28;45621;-60
2020/12/29 00:13:39;;;;;;;16.45;11.52;;;;;;;2.91;73.78;97815.56;697939;28;23459;-61
2020/12/29 00:14:00;;;;;;;16.27;11.40;;;;;;;2.92;73.77;97816.41;698323;28;15307;-59
2020/12/29 00:14:23;;;;;;;17.77;11.27;;;;;;;2.94;73.92;97819.69;697814;28;21511;-61
2020/12/29 00:14:44;;;;;;;18.88;11.63;;;;;;;2.97;73.95;97811.31;696162;28;67633;-61
2020/12/29 00:15:06;;;;;;;17.40;11.32;;;;;;;2.94;73.78;97822.38;696622;28;45918;-61
2020/12/29 00:15:27;;;;;;;15.73;10.90;;;;;;;2.93;73.74;97810.06;698190;28;13364;-62
2020/12/29 00:15:49;;;;;;;16.75;11.18;;;;;;;2.96;73.82;97817.66;695097;28;19242;-62
2020/12/29 00:16:10;;;;;;;17.58;11.60;;;;;;;2.97;73.68;97814.78;693849;28;44531;-60
2020/12/29 00:16:31;;;;;;;16.67;11.48;;;;;;;2.99;74.00;97814.59;694585;28;22452;-61
2020/12/29 00:16:52;;;;;;;17.58;12.30;;;;;;;3.00;73.65;97810.91;694809;28;23094;-62
2020/12/29 00:17:14;;;;;;;17.67;11.70;;;;;;;3.01;73.83;97820.53;694667;28;21585;-61
2020/12/29 00:17:35;;;;;;;19.15;12.02;;;;;;;3.00;73.71;97809.06;694298;28;44397;-61
2020/12/29 00:17:57;;;;;;;18.52;12.05;;;;;;;3.01;73.58;97809.88;698027;28;21554;-61
2020/12/29 00:18:18;;;;;;;17.52;11.85;;;;;;;2.99;73.64;97803.91;697114;28;46278;-60
2020/12/29 00:18:39;;;;;;;17.25;11.57;;;;;;;3.00;73.75;97811.72;698717;28;908;-62
2020/12/29 00:19:01;;;;;;;16.73;11.52;;;;;;;3.01;73.76;97809.88;697928;28;23481;-60
2020/12/29 00:19:24;;;;;;;17.10;11.55;;;;;;;2.99;73.51;97812.72;696814;28;45311;-60
2020/12/29 00:19:45;;;;;;;20.02;11.93;;;;;;;2.98;73.55;97807.59;696334;28;69344;-60
2020/12/29 00:20:06;;;;;;;19.23;11.98;;;;;;;2.96;73.20;97813.16;697985;28;22402;-61
2020/12/29 00:20:28;;;;;;;17.15;11.57;;;;;;;2.94;73.51;97804.50;697036;28;47523;-62
2020/12/29 00:21:00;;;;;;;21.50;11.80;;;;;;;2.96;73.37;97813.16;695205;28;98839;-62
2020/12/29 00:21:21;;;;;;;18.98;11.85;;;;;;;2.96;73.38;97806.97;697164;28;46472;-61
2020/12/29 00:21:44;;;;;;;16.83;11.88;;;;;;;2.95;73.52;97810.69;698481;28;894;-61
2020/12/29 00:22:05;;;;;;;17.35;12.02;;;;;;;2.93;73.38;97808.22;696916;28;46289;-61
2020/12/29 00:22:27;;;;;;;17.02;11.27;;;;;;;2.94;73.55;97803.69;697069;28;45263;-62
2020/12/29 00:22:48;;;;;;;17.13;10.85;;;;;;;2.93;73.54;97802.06;698227;28;17899;-62
2020/12/29 00:23:09;;;;;;;16.67;11.23;;;;;;;2.93;73.56;97802.06;698430;28;8599;-62
2020/12/29 00:23:30;;;;;;;17.42;11.43;;;;;;;2.90;73.75;97800.63;697990;28;22435;-62
2020/12/29 00:23:52;;;;;;;17.52;11.55;;;;;;;2.92;73.76;97795.91;697169;28;46433;-60
2020/12/29 00:24:14;;;;;;;15.80;10.52;;;;;;;2.93;73.54;97800.22;697625;28;21545;-62
2020/12/29 00:24:35;;;;;;;15.82;11.00;;;;;;;2.95;73.60;97808.03;696119;28;46411;-61
2020/12/29 00:24:56;;;;;;;15.40;11.18;;;;;;;2.93;73.45;97796.72;697690;28;21543;-62
2020/12/29 00:25:18;;;;;;;19.55;12.15;;;;;;;2.93;73.57;97799.38;697699;28;22386;-60
2020/12/29 00:25:40;;;;;;;16.23;11.10;;;;;;;2.96;73.47;97802.50;696334;28;69468;-61
2020/12/29 00:26:01;;;;;;;16.13;11.40;;;;;;;2.97;73.51;97795.31;697887;28;22219;-61
2020/12/29 00:26:25;;;;;;;18.02;12.10;;;;;;;2.98;73.49;97803.09;698024;28;22751;-60
2020/12/29 00:26:46;;;;;;;18.40;11.80;;;;;;;2.97;73.63;97803.31;694711;28;93061;-61
2020/12/29 00:27:08;;;;;;;16.92;11.82;;;;;;;2.95;73.64;97800.84;697627;28;21533;-60
2020/12/29 00:27:29;;;;;;;18.35;12.10;;;;;;;2.94;73.66;97804.50;696491;28;44401;-61
2020/12/29 00:27:51;;;;;;;17.55;11.45;;;;;;;2.93;73.56;97802.06;697480;28;47475;-61
2020/12/29 00:28:12;;;;;;;18.27;11.48;;;;;;;2.90;73.74;97795.28;698042;28;10048;-60
2020/12/29 00:28:33;;;;;;;18.20;11.57;;;;;;;2.94;73.91;97801.03;697841;28;23330;-61
2020/12/29 00:28:55;;;;;;;17.83;11.43;;;;;;;2.95;74.06;97805.34;697850;28;23659;-61
2020/12/29 00:29:16;;;;;;;17.83;11.73;;;;;;;2.94;73.59;97801.84;696703;28;47314;-62
2020/12/29 00:29:37;;;;;;;16.35;11.63;;;;;;;2.89;74.12;97797.13;697621;28;22396;-61
2020/12/29 00:29:59;;;;;;;16.70;11.52;;;;;;;2.89;73.84;97799.78;696925;28;46375;-61
2020/12/29 00:30:20;;;;;;;17.92;11.45;;;;;;;2.89;73.70;97794.44;695316;28;21959;-61
2020/12/29 00:30:41;;;;;;;19.52;12.23;;;;;;;2.88;73.63;97798.16;697385;28;23447;-60
2020/12/29 00:31:03;;;;;;;18.17;12.10;;;;;;;2.89;73.73;97798.97;693782;28;45300;-61
2020/12/29 00:31:24;;;;;;;17.95;11.80;;;;;;;2.91;73.58;97796.09;694812;28;23470;-62
2020/12/29 00:31:46;;;;;;;17.60;11.50;;;;;;;2.92;73.68;97792.44;696294;28;45264;-60
2020/12/29 00:32:08;;;;;;;17.80;11.70;;;;;;;2.93;73.69;97789.56;697257;28;23545;-61
2020/12/29 00:32:29;;;;;;;16.92;11.63;;;;;;;2.94;73.65;97788.53;696826;28;46246;-62
2020/12/29 00:32:50;;;;;;;16.60;11.50;;;;;;;2.91;73.66;97785.44;697667;28;23486;-62
2020/12/29 00:33:11;;;;;;;18.80;11.43;;;;;;;2.88;73.79;97790.16;697956;28;4358;-61
2020/12/29 00:33:33;;;;;;;17.10;11.75;;;;;;;2.89;73.62;97780.31;698610;28;1017;-61
2020/12/29 00:33:56;;;;;;;18.27;11.93;;;;;;;2.90;73.69;97781.97;697933;28;22198;-61
2020/12/29 00:34:21;;;;;;;16.48;11.15;;;;;;;2.91;73.76;97782.78;696653;28;61475;-59
2020/12/29 00:34:44;;;;;;;17.27;11.38;;;;;;;2.92;73.49;97784.44;698274;28;1435;-61
2020/12/29 00:35:06;;;;;;;18.85;12.30;;;;;;;2.91;73.53;97775.59;696734;28;46388;-62
2020/12/29 00:35:27;;;;;;;17.85;12.02;;;;;;;2.91;73.70;97780.09;698357;28;12217;-62
2020/12/29 00:35:49;;;;;;;19.52;12.23;;;;;;;2.90;73.88;97776.63;697231;28;42982;-60
2020/12/29 00:36:11;;;;;;;18.88;12.32;;;;;;;2.92;73.81;97779.09;697949;28;21429;-62
2020/12/29 00:36:32;;;;;;;19.30;12.05;;;;;;;2.91;73.80;97780.91;696911;28;46446;-61
2020/12/29 00:36:54;;;;;;;18.50;11.32;;;;;;;2.94;73.71;97782.38;697695;28;23539;-61
2020/12/29 00:37:15;;;;;;;17.10;11.00;;;;;;;2.95;73.67;97778.69;696969;28;46232;-60
2020/12/29 00:37:36;;;;;;;16.33;11.15;;;;;;;2.96;73.58;97783.84;697569;28;21549;-61
2020/12/29 00:37:57;;;;;;;15.25;11.57;;;;;;;2.97;73.50;97781.97;697851;28;23417;-61
2020/12/29 00:38:19;;;;;;;16.42;12.00;;;;;;;2.98;73.65;97770.28;698014;28;21540;-61
2020/12/29 00:38:41;;;;;;;18.38;12.07;;;;;;;2.96;73.70;97769.66;698325;28;1089;-61
2020/12/29 00:39:03;;;;;;;18.35;12.18;;;;;;;2.91;73.72;97769.44;697195;28;39787;-61
2020/12/29 00:39:25;;;;;;;18.63;11.60;;;;;;;2.91;73.95;97770.25;697036;28;46347;-61
2020/12/29 00:39:46;;;;;;;16.45;11.18;;;;;;;2.94;73.62;97780.53;698343;28;9241;-61
2020/12/29 00:40:07;;;;;;;17.15;10.82;;;;;;;2.96;73.74;97767.00;697821;28;22393;-61
2020/12/29 00:40:29;;;;;;;18.08;11.50;;;;;;;2.92;73.88;97774.56;696833;28;47811;-61
2020/12/29 00:40:50;;;;;;;17.60;11.68;;;;;;;2.91;73.80;97772.13;697874;28;17189;-62
2020/12/29 00:41:12;;;;;;;16.73;11.65;;;;;;;2.89;74.01;97769.66;698358;28;1204;-61
2020/12/29 00:41:34;;;;;;;17.40;11.88;;;;;;;2.91;74.13;97772.13;696221;28;69497;-61
2020/12/29 00:41:55;;;;;;;17.20;11.45;;;;;;;2.93;73.92;97773.56;698026;28;23492;-62
2020/12/29 00:42:18;;;;;;;18.35;12.02;;;;;;;2.95;73.90;97773.38;695094;28;88136;-62
2020/12/29 00:42:40;;;;;;;18.05;11.77;;;;;;;2.97;73.81;97768.66;697967;28;22387;-62
2020/12/29 00:43:01;;;;;;;19.45;12.07;;;;;;;2.97;73.71;97765.97;697968;28;23191;-62
2020/12/29 00:43:23;;;;;;;20.25;12.48;;;;;;;2.94;73.90;97767.19;696723;28;44369;-62
2020/12/29 00:43:44;;;;;;;18.17;12.35;;;;;;;2.93;73.78;97770.06;697662;28;20592;-62
2020/12/29 00:44:06;;;;;;;18.08;12.07;;;;;;;2.93;73.80;97764.72;697219;28;36706;-62
2020/12/29 00:44:27;;;;;;;18.58;12.27;;;;;;;2.92;73.80;97771.09;697907;28;21348;-62
2020/12/29 00:44:49;;;;;;;16.65;11.95;;;;;;;2.89;73.92;97766.97;697675;28;23546;-62
2020/12/29 00:45:10;;;;;;;16.45;11.48;;;;;;;2.86;74.05;97762.88;697195;28;37939;-62
2020/12/29 00:45:31;;;;;;;18.90;12.02;;;;;;;2.87;74.05;97775.19;696622;28;22509;-62
2020/12/29 00:45:52;;;;;;;18.08;12.18;;;;;;;2.86;74.14;97770.84;697080;28;37057;-62
2020/12/29 00:46:18;;;;;;;17.70;11.52;;;;;;;2.82;74.13;97769.63;692968;28;21646;-61
2020/12/29 00:46:40;;;;;;;17.63;11.85;;;;;;;2.85;74.05;97773.72;689511;28;138859;-61
2020/12/29 00:47:01;;;;;;;20.90;12.10;;;;;;;2.85;73.99;97769.25;693367;28;23506;-60
2020/12/29 00:47:22;;;;;;;17.42;12.00;;;;;;;2.85;73.88;97771.06;692088;28;46439;-61
2020/12/29 00:47:44;;;;;;;17.42;11.88;;;;;;;2.86;73.69;97773.53;693240;28;21268;-61
2020/12/29 00:48:05;;;;;;;17.08;11.95;;;;;;;2.84;73.89;97772.91;694747;28;23559;-60
2020/12/29 00:48:27;;;;;;;16.63;11.73;;;;;;;2.83;73.94;97770.44;695546;28;46353;-62
2020/12/29 00:48:49;;;;;;;17.52;11.77;;;;;;;2.81;74.03;97767.16;695077;28;45253;-62
2020/12/29 00:49:10;;;;;;;17.95;12.20;;;;;;;2.82;74.04;97768.78;695333;28;35670;-62
2020/12/29 00:49:32;;;;;;;19.83;12.15;;;;;;;2.81;74.06;97772.50;696237;28;22480;-61
2020/12/29 00:49:55;;;;;;;17.67;11.55;;;;;;;2.81;74.12;97777.84;694225;28;69730;-61
2020/12/29 00:50:16;;;;;;;17.35;11.88;;;;;;;2.80;74.16;97776.19;693233;28;46412;-61
2020/12/29 00:50:38;;;;;;;19.48;12.40;;;;;;;2.82;74.02;97776.78;694646;28;22447;-61
2020/12/29 00:51:04;;;;;;;20.35;12.32;;;;;;;2.79;74.26;97780.69;693501;28;46162;-60
2020/12/29 00:51:27;;;;;;;17.13;11.38;;;;;;;2.79;73.94;97777.19;687825;28;138011;-61
2020/12/29 00:51:54;;;;;;;17.73;12.32;;;;;;;2.79;74.19;97779.84;687495;28;137689;-62
2020/12/29 00:52:23;;;;;;;19.33;12.43;;;;;;;2.79;74.21;97778.03;687822;28;138624;-61
2020/12/29 00:52:52;;;;;;;18.85;11.98;;;;;;;2.79;74.16;97778.03;688088;28;137947;-61
2020/12/29 00:53:22;;;;;;;18.20;11.85;;;;;;;2.77;74.14;97773.91;688118;28;159565;-62
2020/12/29 00:53:49;;;;;;;21.85;13.07;;;;;;;2.79;74.02;97782.50;687137;28;138050;-62
2020/12/29 00:54:12;;;;;;;19.63;12.52;;;;;;;2.78;74.19;97787.03;689059;28;69585;-61
2020/12/29 00:54:41;;;;;;;18.08;11.93;;;;;;;2.80;74.08;97792.16;684663;28;160908;-62
2020/12/29 00:55:03;;;;;;;18.38;12.00;;;;;;;2.81;73.90;97785.81;689512;28;46429;-62
2020/12/29 00:55:38;;;;;;;18.13;11.68;;;;;;;2.81;73.90;97793.81;686559;28;160130;-62
2020/12/29 00:56:00;;;;;;;16.75;11.48;;;;;;;2.79;73.95;97783.34;689933;28;46404;-59
2020/12/29 00:56:23;;;;;;;18.63;11.98;;;;;;;2.79;74.26;97788.69;686304;28;69462;-61
2020/12/29 00:56:48;;;;;;;17.60;12.23;;;;;;;2.76;74.14;97782.91;687281;28;138004;-60
2020/12/29 00:57:11;;;;;;;17.95;12.07;;;;;;;2.80;73.94;97787.66;688238;28;46333;-61
2020/12/29 00:57:32;;;;;;;16.90;11.88;;;;;;;2.80;74.01;97787.66;685882;28;22117;-61
2020/12/29 00:57:54;;;;;;;19.05;12.75;;;;;;;2.79;74.11;97785.19;682484;28;66212;-61
2020/12/29 00:58:15;;;;;;;17.27;11.98;;;;;;;2.79;74.10;97779.84;681728;28;46716;-62
2020/12/29 00:58:38;;;;;;;18.80;11.70;;;;;;;2.77;74.09;97782.72;681733;28;23285;-62
2020/12/29 00:59:00;;;;;;;18.33;11.88;;;;;;;2.75;74.23;97784.78;684656;28;69379;-62
2020/12/29 00:59:26;;;;;;;18.20;12.05;;;;;;;2.74;74.16;97784.97;685348;28;130684;-61
2020/12/29 00:59:47;;;;;;;18.75;12.20;;;;;;;2.76;74.39;97781.09;691672;28;46139;-62
2020/12/29 01:00:09;;;;;;;18.15;11.95;;;;;;;2.76;74.25;97786.41;690447;28;21544;-62
2020/12/29 01:00:50;;;;;;;20.90;12.43;;;;;;;2.76;74.30;97789.09;687271;28;137388;-60
2020/12/29 01:01:12;;;;;;;17.95;12.07;;;;;;;2.76;74.26;97793.56;690082;28;32268;-61
2020/12/29 01:01:54;;;;;;;19.30;12.57;;;;;;;2.74;74.21;97795.63;689349;28;137829;-62
2020/12/29 01:02:35;;;;;;;16.67;11.43;;;;;;;2.74;74.13;97801.78;689549;28;137586;-62
2020/12/29 01:03:10;;;;;;;18.90;12.15;;;;;;;2.74;74.23;97801.78;692489;28;135879;-62
2020/12/29 01:03:31;;;;;;;18.52;12.02;;;;;;;2.72;74.21;97798.50;694051;28;41943;-62
2020/12/29 01:03:54;;;;;;;18.30;12.25;;;;;;;2.74;74.22;97809.75;694055;28;38998;-62
2020/12/29 01:04:15;;;;;;;18.30;12.45;;;;;;;2.74;74.25;97800.97;691230;28;44123;-61
2020/12/29 01:04:37;;;;;;;17.88;11.93;;;;;;;2.72;74.46;97811.81;691438;28;23422;-61
2020/12/29 01:05:00;;;;;;;18.02;11.75;;;;;;;2.71;74.22;97812.81;689215;28;90319;-61
2020/12/29 01:05:22;;;;;;;17.60;11.70;;;;;;;2.73;74.30;97812.63;690065;28;22479;-62
2020/12/29 01:05:44;;;;;;;17.60;11.95;;;;;;;2.70;74.37;97814.69;691562;28;38507;-62
2020/12/29 01:06:06;;;;;;;19.30;12.32;;;;;;;2.73;74.22;97815.28;691133;28;45742;-62
2020/12/29 01:06:29;;;;;;;19.70;12.32;;;;;;;2.74;74.33;97811.63;691279;28;39255;-62
2020/12/29 01:06:54;;;;;;;18.75;11.80;;;;;;;2.76;74.32;97810.41;686582;28;138134;-62
2020/12/29 01:07:18;;;;;;;20.55;12.38;;;;;;;2.79;74.16;97818.00;688450;28;92441;-62
2020/12/29 01:07:39;;;;;;;19.02;12.05;;;;;;;2.80;74.13;97816.97;692209;28;44172;-62
2020/12/29 01:08:01;;;;;;;18.30;12.20;;;;;;;2.80;74.16;97827.63;694263;28;22502;-62
2020/12/29 01:08:29;;;;;;;17.42;11.30;;;;;;;2.77;74.26;97819.22;687902;28;137936;-60
2020/12/29 01:08:51;;;;;;;19.17;11.90;;;;;;;2.76;74.20;97823.75;690437;28;46274;-62
2020/12/29 01:09:12;;;;;;;18.63;12.18;;;;;;;2.75;74.22;97822.09;692817;28;23420;-62
2020/12/29 01:09:34;;;;;;;18.00;11.55;;;;;;;2.74;74.31;97824.94;693498;28;22408;-62
2020/12/29 01:09:57;;;;;;;17.95;11.60;;;;;;;2.71;74.50;97826.16;688696;28;67513;-62
2020/12/29 01:10:18;;;;;;;16.75;11.63;;;;;;;2.72;74.46;97827.00;691160;28;45263;-62
2020/12/29 01:11:00;;;;;;;20.38;12.65;;;;;;;2.69;74.71;97825.53;681058;28;136015;-62
2020/12/29 01:11:38;;;;;;;18.35;12.30;;;;;;;2.74;74.86;97832.94;681890;28;60659;-62
2020/12/29 01:12:00;;;;;;;19.67;12.23;;;;;;;2.70;74.68;97825.34;685984;28;45052;-62
2020/12/29 01:12:23;;;;;;;20.25;12.15;;;;;;;2.72;74.57;97832.31;689629;28;90495;-62
2020/12/29 01:12:44;;;;;;;18.60;11.88;;;;;;;2.71;74.82;97834.16;688906;28;13194;-61
2020/12/29 01:13:06;;;;;;;19.88;12.70;;;;;;;2.69;74.55;97829.00;688890;28;23444;-62
2020/12/29 01:13:31;;;;;;;19.75;12.60;;;;;;;2.70;74.53;97835.19;685026;28;138278;-62
2020/12/29 01:13:53;;;;;;;18.00;12.50;;;;;;;2.69;74.68;97834.34;690595;28;16669;-62
2020/12/29 01:14:14;;;;;;;18.73;12.18;;;;;;;2.69;74.58;97831.69;692601;28;37331;-62
2020/12/29 01:14:51;;;;;;;18.08;12.55;;;;;;;2.72;74.31;97833.13;690795;28;129727;-62
2020/12/29 01:15:18;;;;;;;19.77;12.30;;;;;;;2.72;74.49;97830.47;690240;28;138072;-62
2020/12/29 01:16:23;;;;;;;18.98;12.02;;;;;;;2.67;74.60;97832.91;680396;28;161500;-60
2020/12/29 01:16:49;;;;;;;21.90;12.95;;;;;;;2.70;74.53;97833.34;679602;28;138061;-61
2020/12/29 01:17:12;;;;;;;19.45;12.63;;;;;;;2.69;74.55;97839.66;680853;28;69433;-59
2020/12/29 01:17:33;;;;;;;17.70;12.23;;;;;;;2.70;74.38;97835.19;683107;28;44386;-59
2020/12/29 01:17:56;;;;;;;18.25;12.23;;;;;;;2.70;74.34;97836.00;686207;28;4100;-59
2020/12/29 01:18:17;;;;;;;19.02;12.48;;;;;;;2.72;74.36;97840.31;685657;28;46438;-58
2020/12/29 01:18:39;;;;;;;17.48;12.35;;;;;;;2.74;74.07;97840.94;684343;28;22523;-58
2020/12/29 01:19:00;;;;;;;19.13;12.45;;;;;;;2.75;74.36;97842.59;686487;28;46238;-60
2020/12/29 01:19:22;;;;;;;20.48;13.15;;;;;;;2.74;74.29;97846.25;690252;28;829;-61
2020/12/29 01:19:43;;;;;;;20.73;12.82;;;;;;;2.70;74.72;97843.19;688994;28;45236;-58
2020/12/29 01:20:04;;;;;;;20.27;12.77;;;;;;;2.70;74.59;97838.66;689409;28;22430;-60
2020/12/29 01:20:26;;;;;;;18.35;12.07;;;;;;;2.69;74.72;97844.19;690418;28;22200;-58
2020/12/29 01:20:48;;;;;;;18.55;12.57;;;;;;;2.68;74.70;97840.72;691587;28;46393;-61
2020/12/29 01:21:10;;;;;;;18.63;11.50;;;;;;;2.69;74.71;97846.84;691224;28;44597;-61
2020/12/29 01:21:32;;;;;;;20.60;12.25;;;;;;;2.67;74.79;97841.72;691442;28;47727;-58
2020/12/29 01:21:53;;;;;;;19.38;12.45;;;;;;;2.68;74.75;97847.88;688667;28;44781;-60
2020/12/29 01:22:15;;;;;;;19.15;12.23;;;;;;;2.67;74.47;97849.72;689102;28;22412;-60
2020/12/29 01:22:36;;;;;;;20.05;12.40;;;;;;;2.69;74.77;97852.19;688484;28;46431;-58
2020/12/29 01:22:58;;;;;;;18.05;12.38;;;;;;;2.68;74.55;97845.19;689369;28;23496;-60
2020/12/29 01:23:19;;;;;;;17.52;12.55;;;;;;;2.69;74.54;97847.66;688701;28;43835;-61
2020/12/29 01:23:40;;;;;;;17.33;12.15;;;;;;;2.73;74.67;97842.78;690199;28;22241;-61
2020/12/29 01:24:02;;;;;;;18.02;11.63;;;;;;;2.72;74.44;97845.66;693150;28;860;-60
2020/12/29 01:24:23;;;;;;;20.98;12.00;;;;;;;2.70;74.52;97846.66;691651;28;46258;-61
2020/12/29 01:24:45;;;;;;;20.38;12.45;;;;;;;2.70;74.51;97852.00;691992;28;23433;-59
2020/12/29 01:25:06;;;;;;;19.27;12.57;;;;;;;2.71;74.43;97850.13;691499;28;31083;-61
2020/12/29 01:25:27;;;;;;;20.00;12.73;;;;;;;2.70;74.57;97856.50;692955;28;963;-61
2020/12/29 01:25:48;;;;;;;18.30;12.13;;;;;;;2.71;74.56;97855.47;692502;28;23464;-60
2020/12/29 01:26:10;;;;;;;17.60;12.50;;;;;;;2.70;74.62;97859.19;693439;28;22417;-59
2020/12/29 01:26:31;;;;;;;18.20;12.00;;;;;;;2.69;74.90;97849.53;693103;28;43282;-61
2020/12/29 01:26:56;;;;;;;17.20;11.90;;;;;;;2.68;74.62;97856.69;693784;28;23513;-59
2020/12/29 01:27:17;;;;;;;20.70;13.02;;;;;;;2.68;74.70;97854.03;690405;28;116129;-60
2020/12/29 01:27:38;;;;;;;21.77;13.70;;;;;;;2.69;74.71;97857.50;693221;28;22395;-60
2020/12/29 01:28:00;;;;;;;21.00;12.73;;;;;;;2.68;74.80;97851.38;692817;28;46299;-60
2020/12/29 01:28:21;;;;;;;19.42;12.07;;;;;;;2.68;75.07;97850.53;693496;28;21299;-61
2020/12/29 01:28:42;;;;;;;18.25;11.80;;;;;;;2.69;74.59;97849.53;693459;28;22404;-60
2020/12/29 01:29:04;;;;;;;18.17;12.32;;;;;;;2.68;74.71;97851.38;693759;28;23331;-59
2020/12/29 01:29:25;;;;;;;20.00;12.90;;;;;;;2.67;74.76;97849.72;692962;28;44414;-60
2020/12/29 01:29:46;;;;;;;18.35;12.00;;;;;;;2.67;74.88;97848.91;694190;28;15305;-61
2020/12/29 01:30:08;;;;;;;18.88;12.45;;;;;;;2.67;74.64;97843.56;693047;28;44360;-60
2020/12/29 01:30:29;;;;;;;18.17;12.48;;;;;;;2.68;74.78;97851.38;693577;28;23220;-61
2020/12/29 01:30:51;;;;;;;18.38;12.30;;;;;;;2.69;74.78;97844.19;694110;28;21771;-58
2020/12/29 01:31:12;;;;;;;17.67;12.05;;;;;;;2.72;74.73;97843.00;692425;28;44333;-58
2020/12/29 01:31:33;;;;;;;18.23;11.93;;;;;;;2.71;74.77;97847.47;693300;28;22442;-62
2020/12/29 01:31:54;;;;;;;19.25;12.25;;;;;;;2.70;74.76;97844.00;693530;28;18464;-60
2020/12/29 01:32:16;;;;;;;18.10;12.35;;;;;;;2.72;74.64;97843.00;692914;28;46310;-61
2020/12/29 01:32:37;;;;;;;19.73;12.23;;;;;;;2.70;74.72;97845.84;693694;28;23500;-60
2020/12/29 01:32:59;;;;;;;18.38;12.55;;;;;;;2.69;74.95;97850.34;692946;28;44197;-60
2020/12/29 01:33:20;;;;;;;18.75;12.68;;;;;;;2.71;74.82;97844.81;693760;28;22426;-60
2020/12/29 01:33:41;;;;;;;19.38;12.48;;;;;;;2.72;74.79;97843.00;693543;28;22465;-62
2020/12/29 01:34:03;;;;;;;21.00;12.82;;;;;;;2.73;74.50;97847.28;693198;28;22422;-61
2020/12/29 01:34:24;;;;;;;19.67;12.80;;;;;;;2.71;74.44;97844.81;692550;28;46362;-58
2020/12/29 01:34:45;;;;;;;19.58;13.27;;;;;;;2.71;74.68;97850.13;693431;28;21536;-61
2020/12/29 01:35:07;;;;;;;18.50;12.65;;;;;;;2.69;74.51;97841.53;692753;28;45042;-60
2020/12/29 01:35:28;;;;;;;21.33;12.88;;;;;;;2.69;74.49;97845.00;693548;28;23433;-60
2020/12/29 01:35:50;;;;;;;20.35;12.68;;;;;;;2.69;74.70;97838.88;692976;28;44477;-60
2020/12/29 01:36:11;;;;;;;20.27;13.10;;;;;;;2.67;75.10;97851.56;693706;28;22391;-59
2020/12/29 01:36:33;;;;;;;22.08;13.38;;;;;;;2.70;74.83;97849.31;693630;28;21537;-61
2020/12/29 01:36:55;;;;;;;19.77;12.75;;;;;;;2.72;74.83;97848.31;692675;28;45259;-61
2020/12/29 01:37:16;;;;;;;19.23;12.35;;;;;;;2.70;74.92;97845.84;692715;28;45269;-60
2020/12/29 01:37:41;;;;;;;17.58;12.15;;;;;;;2.72;74.66;97853.66;694025;28;4310;-58
2020/12/29 01:38:03;;;;;;;20.15;12.88;;;;;;;2.71;74.71;97844.81;690942;28;113750;-60
2020/12/29 01:38:25;;;;;;;19.67;12.98;;;;;;;2.72;74.64;97846.47;692624;28;46270;-61
2020/12/29 01:38:46;;;;;;;19.63;12.85;;;;;;;2.72;74.57;97835.81;690354;28;45366;-60
2020/12/29 01:39:07;;;;;;;19.92;12.73;;;;;;;2.73;74.64;97848.13;690860;28;23101;-62
2020/12/29 01:39:29;;;;;;;20.92;13.02;;;;;;;2.72;74.75;97843.00;690434;28;36058;-58
2020/12/29 01:39:50;;;;;;;20.38;12.65;;;;;;;2.73;74.60;97850.78;690633;28;22387;-59
2020/12/29 01:40:13;;;;;;;20.60;12.45;;;;;;;2.73;74.59;97847.28;691071;28;1021;-60
2020/12/29 01:40:34;;;;;;;21.70;13.15;;;;;;;2.70;74.73;97843.19;689765;28;69322;-60
2020/12/29 01:40:58;;;;;;;20.42;13.18;;;;;;;2.70;74.68;97857.31;692941;28;46169;-61
2020/12/29 01:41:20;;;;;;;21.40;13.20;;;;;;;2.73;74.70;97849.94;691219;28;93140;-61
2020/12/29 01:41:42;;;;;;;20.10;12.82;;;;;;;2.71;74.72;97847.47;693808;28;6493;-60
2020/12/29 01:42:03;;;;;;;19.33;11.90;;;;;;;2.70;74.78;97848.50;692624;28;46414;-60
2020/12/29 01:42:24;;;;;;;19.70;12.40;;;;;;;2.69;74.96;97854.84;693663;28;23665;-61
2020/12/29 01:42:46;;;;;;;20.10;12.45;;;;;;;2.68;74.77;97851.38;694655;28;1484;-61
2020/12/29 01:43:07;;;;;;;20.52;12.68;;;;;;;2.69;74.72;97847.66;694449;28;867;-60
2020/12/29 01:43:30;;;;;;;18.00;12.27;;;;;;;2.69;74.69;97850.34;693448;28;45250;-60
2020/12/29 01:43:52;;;;;;;19.05;12.30;;;;;;;2.70;74.70;97844.00;694618;28;937;-62
2020/12/29 01:44:20;;;;;;;19.55;12.15;;;;;;;2.68;74.84;97851.38;692832;28;62134;-58
2020/12/29 01:44:41;;;;;;;22.27;13.00;;;;;;;2.72;74.71;97846.47;695109;28;954;-61
2020/12/29 01:45:06;;;;;;;20.88;12.73;;;;;;;2.73;74.63;97847.28;693287;28;32592;-60
2020/12/29 01:45:29;;;;;;;19.23;12.45;;;;;;;2.75;74.66;97850.59;692990;28;60678;-61
2020/12/29 01:45:50;;;;;;;18.98;12.25;;;;;;;2.73;74.71;97847.28;694744;28;8700;-61
2020/12/29 01:46:11;;;;;;;19.05;12.05;;;;;;;2.71;74.83;97850.13;693942;28;23611;-60
2020/12/29 01:46:33;;;;;;;19.98;12.68;;;;;;;2.73;74.65;97858.78;693390;28;31719;-60
2020/12/29 01:46:54;;;;;;;20.63;12.95;;;;;;;2.71;74.69;97855.47;694032;28;20112;-60